sensor_id;sensor_type;location;lat;lon;timestamp;temperature;humidity
12817;DHT22;6473;51.552;6.716;2023-07-31T00:01:57;15.10;99.90
12817;DHT22;6473;51.552;6.716;2023-07-31T00:04:24;15.10;99.90
12817;DHT22;6473;51.552;6.716;2023-07-31T00:06:51;15.30;99.90
12817;DHT22;6473;51.552;6.716;2023-07-31T00:09:18;15.40;99.90
12817;DHT22;6473;51.552;6.716;2023-07-31T00:11:46;15.50;99.90
12817;DHT22;6473;51.552;6.716;2023-07-31T00:14:13;15.60;99.90
12817;DHT22;6473;51.552;6.716;2023-07-31T00:16:40;15.70;99.90
12817;DHT22;6473;51.552;6.716;2023-07-31T00:19:07;15.80;99.90
12817;DHT22;6473;51.552;6.716;2023-07-31T00:21:34;15.80;99.90
12817;DHT22;6473;51.552;6.716;2023-07-31T00:24:00;15.80;99.90
12817;DHT22;6473;51.552;6.716;2023-07-31T00:26:27;15.70;99.90
12817;DHT22;6473;51.552;6.716;2023-07-31T00:28:56;15.90;99.90
12817;DHT22;6473;51.552;6.716;2023-07-31T00:31:23;15.90;99.90
12817;DHT22;6473;51.552;6.716;2023-07-31T00:33:50;15.80;99.90
12817;DHT22;6473;51.552;6.716;2023-07-31T00:36:16;15.80;99.90
12817;DHT22;6473;51.552;6.716;2023-07-31T00:38:44;15.90;99.90
12817;DHT22;6473;51.552;6.716;2023-07-31T00:41:11;15.90;99.90
12817;DHT22;6473;51.552;6.716;2023-07-31T00:43:38;15.90;99.90
12817;DHT22;6473;51.552;6.716;2023-07-31T00:46:08;15.90;99.90
12817;DHT22;6473;51.552;6.716;2023-07-31T00:48:35;15.90;99.90
12817;DHT22;6473;51.552;6.716;2023-07-31T00:51:03;15.90;99.90
12817;DHT22;6473;51.552;6.716;2023-07-31T00:53:31;16.00;99.90
12817;DHT22;6473;51.552;6.716;2023-07-31T00:55:58;16.00;99.90
12817;DHT22;6473;51.552;6.716;2023-07-31T00:58:25;16.00;99.90
12817;DHT22;6473;51.552;6.716;2023-07-31T01:00:52;15.90;99.90
12817;DHT22;6473;51.552;6.716;2023-07-31T01:03:20;16.00;99.90
12817;DHT22;6473;51.552;6.716;2023-07-31T01:05:55;16.00;99.90
12817;DHT22;6473;51.552;6.716;2023-07-31T01:08:32;16.00;99.90
12817;DHT22;6473;51.552;6.716;2023-07-31T01:11:04;16.00;99.90
12817;DHT22;6473;51.552;6.716;2023-07-31T01:13:34;16.00;99.90
12817;DHT22;6473;51.552;6.716;2023-07-31T01:16:02;16.20;99.90
12817;DHT22;6473;51.552;6.716;2023-07-31T01:18:30;16.00;99.90
12817;DHT22;6473;51.552;6.716;2023-07-31T01:21:03;16.00;99.90
12817;DHT22;6473;51.552;6.716;2023-07-31T01:23:51;16.00;99.90
12817;DHT22;6473;51.552;6.716;2023-07-31T01:26:24;16.00;99.90
12817;DHT22;6473;51.552;6.716;2023-07-31T01:28:56;16.00;99.90
12817;DHT22;6473;51.552;6.716;2023-07-31T01:31:30;16.00;99.90
12817;DHT22;6473;51.552;6.716;2023-07-31T01:34:00;16.00;99.90
12817;DHT22;6473;51.552;6.716;2023-07-31T01:36:28;16.00;99.90
12817;DHT22;6473;51.552;6.716;2023-07-31T01:38:58;16.00;99.90
12817;DHT22;6473;51.552;6.716;2023-07-31T01:41:27;16.10;99.90
12817;DHT22;6473;51.552;6.716;2023-07-31T01:43:54;16.00;99.90
12817;DHT22;6473;51.552;6.716;2023-07-31T01:46:23;16.00;99.90
12817;DHT22;6473;51.552;6.716;2023-07-31T01:48:51;16.00;99.90
12817;DHT22;6473;51.552;6.716;2023-07-31T01:51:18;16.00;99.90
12817;DHT22;6473;51.552;6.716;2023-07-31T01:53:45;16.00;99.90
12817;DHT22;6473;51.552;6.716;2023-07-31T01:56:12;16.10;99.90
12817;DHT22;6473;51.552;6.716;2023-07-31T01:58:40;16.00;99.90
12817;DHT22;6473;51.552;6.716;2023-07-31T02:01:07;16.00;99.90
12817;DHT22;6473;51.552;6.716;2023-07-31T02:03:34;16.00;99.90
12817;DHT22;6473;51.552;6.716;2023-07-31T02:06:01;16.00;99.90
12817;DHT22;6473;51.552;6.716;2023-07-31T02:08:28;16.00;99.90
12817;DHT22;6473;51.552;6.716;2023-07-31T02:10:55;16.00;99.90
12817;DHT22;6473;51.552;6.716;2023-07-31T02:13:22;16.00;99.90
12817;DHT22;6473;51.552;6.716;2023-07-31T02:15:51;16.00;99.90
12817;DHT22;6473;51.552;6.716;2023-07-31T02:18:17;16.00;99.90
12817;DHT22;6473;51.552;6.716;2023-07-31T02:20:49;16.00;99.90
12817;DHT22;6473;51.552;6.716;2023-07-31T02:23:16;16.30;99.90
12817;DHT22;6473;51.552;6.716;2023-07-31T02:25:43;16.10;99.90
12817;DHT22;6473;51.552;6.716;2023-07-31T02:28:10;16.00;99.90
12817;DHT22;6473;51.552;6.716;2023-07-31T02:30:37;16.00;99.90
12817;DHT22;6473;51.552;6.716;2023-07-31T02:33:05;17.50;99.90
12817;DHT22;6473;51.552;6.716;2023-07-31T02:35:32;16.10;99.90
12817;DHT22;6473;51.552;6.716;2023-07-31T02:37:59;16.10;99.90
12817;DHT22;6473;51.552;6.716;2023-07-31T02:40:26;16.00;99.90
12817;DHT22;6473;51.552;6.716;2023-07-31T02:42:53;16.10;99.90
12817;DHT22;6473;51.552;6.716;2023-07-31T02:45:20;16.10;99.90
12817;DHT22;6473;51.552;6.716;2023-07-31T02:47:47;16.10;99.90
12817;DHT22;6473;51.552;6.716;2023-07-31T02:50:15;16.20;99.90
12817;DHT22;6473;51.552;6.716;2023-07-31T02:52:43;16.10;99.90
12817;DHT22;6473;51.552;6.716;2023-07-31T02:55:10;16.10;99.90
12817;DHT22;6473;51.552;6.716;2023-07-31T02:57:37;16.10;99.90
12817;DHT22;6473;51.552;6.716;2023-07-31T03:00:06;16.20;99.90
12817;DHT22;6473;51.552;6.716;2023-07-31T03:02:33;16.10;99.90
12817;DHT22;6473;51.552;6.716;2023-07-31T03:05:00;16.10;99.90
12817;DHT22;6473;51.552;6.716;2023-07-31T03:07:28;16.10;99.90
12817;DHT22;6473;51.552;6.716;2023-07-31T03:09:55;16.20;99.90
12817;DHT22;6473;51.552;6.716;2023-07-31T03:12:23;16.20;99.90
12817;DHT22;6473;51.552;6.716;2023-07-31T03:14:50;16.10;99.90
12817;DHT22;6473;51.552;6.716;2023-07-31T03:17:17;16.20;99.90
12817;DHT22;6473;51.552;6.716;2023-07-31T03:19:44;16.10;99.90
12817;DHT22;6473;51.552;6.716;2023-07-31T03:22:11;16.10;99.90
12817;DHT22;6473;51.552;6.716;2023-07-31T03:24:39;16.10;99.90
12817;DHT22;6473;51.552;6.716;2023-07-31T03:27:06;16.10;99.90
12817;DHT22;6473;51.552;6.716;2023-07-31T03:29:33;16.10;99.90
12817;DHT22;6473;51.552;6.716;2023-07-31T03:32:01;16.10;99.90
12817;DHT22;6473;51.552;6.716;2023-07-31T03:34:29;16.10;99.90
12817;DHT22;6473;51.552;6.716;2023-07-31T03:36:57;16.10;99.90
12817;DHT22;6473;51.552;6.716;2023-07-31T03:39:24;16.10;99.90
12817;DHT22;6473;51.552;6.716;2023-07-31T03:41:52;16.20;99.90
12817;DHT22;6473;51.552;6.716;2023-07-31T03:44:19;16.20;99.90
12817;DHT22;6473;51.552;6.716;2023-07-31T03:46:46;16.20;99.90
12817;DHT22;6473;51.552;6.716;2023-07-31T03:49:13;16.20;99.90
12817;DHT22;6473;51.552;6.716;2023-07-31T03:51:40;16.20;99.90
12817;DHT22;6473;51.552;6.716;2023-07-31T03:54:08;16.20;99.90
12817;DHT22;6473;51.552;6.716;2023-07-31T03:56:35;16.20;99.90
12817;DHT22;6473;51.552;6.716;2023-07-31T03:59:04;16.20;99.90
12817;DHT22;6473;51.552;6.716;2023-07-31T04:01:32;16.20;99.90
12817;DHT22;6473;51.552;6.716;2023-07-31T04:03:58;16.30;99.90
12817;DHT22;6473;51.552;6.716;2023-07-31T04:06:25;16.30;99.90
12817;DHT22;6473;51.552;6.716;2023-07-31T04:08:52;16.40;99.90
12817;DHT22;6473;51.552;6.716;2023-07-31T04:11:19;16.40;99.90
12817;DHT22;6473;51.552;6.716;2023-07-31T04:13:46;16.40;99.90
12817;DHT22;6473;51.552;6.716;2023-07-31T04:16:14;16.40;99.90
12817;DHT22;6473;51.552;6.716;2023-07-31T04:18:41;17.30;99.90
12817;DHT22;6473;51.552;6.716;2023-07-31T04:21:08;16.40;99.90
12817;DHT22;6473;51.552;6.716;2023-07-31T04:23:35;16.40;99.90
12817;DHT22;6473;51.552;6.716;2023-07-31T04:26:02;16.50;99.90
12817;DHT22;6473;51.552;6.716;2023-07-31T04:28:29;16.50;99.90
12817;DHT22;6473;51.552;6.716;2023-07-31T04:30:57;16.50;99.90
12817;DHT22;6473;51.552;6.716;2023-07-31T04:33:25;16.50;99.90
12817;DHT22;6473;51.552;6.716;2023-07-31T04:35:53;16.50;99.90
12817;DHT22;6473;51.552;6.716;2023-07-31T04:38:20;16.40;99.90
12817;DHT22;6473;51.552;6.716;2023-07-31T04:40:47;16.40;99.90
12817;DHT22;6473;51.552;6.716;2023-07-31T04:43:14;16.30;99.90
12817;DHT22;6473;51.552;6.716;2023-07-31T04:45:44;16.50;99.90
12817;DHT22;6473;51.552;6.716;2023-07-31T04:48:12;16.30;99.90
12817;DHT22;6473;51.552;6.716;2023-07-31T04:50:41;16.30;99.90
12817;DHT22;6473;51.552;6.716;2023-07-31T04:53:07;16.30;99.90
12817;DHT22;6473;51.552;6.716;2023-07-31T04:55:34;16.20;99.90
12817;DHT22;6473;51.552;6.716;2023-07-31T04:58:01;16.20;99.90
12817;DHT22;6473;51.552;6.716;2023-07-31T05:00:28;16.30;99.90
12817;DHT22;6473;51.552;6.716;2023-07-31T05:02:55;16.30;99.90
12817;DHT22;6473;51.552;6.716;2023-07-31T05:05:22;16.40;99.90
12817;DHT22;6473;51.552;6.716;2023-07-31T05:07:50;16.40;99.90
12817;DHT22;6473;51.552;6.716;2023-07-31T05:10:17;16.40;99.90
12817;DHT22;6473;51.552;6.716;2023-07-31T05:12:44;16.40;99.90
12817;DHT22;6473;51.552;6.716;2023-07-31T05:15:11;16.50;99.90
12817;DHT22;6473;51.552;6.716;2023-07-31T05:17:38;16.50;99.90
12817;DHT22;6473;51.552;6.716;2023-07-31T05:20:06;16.50;99.90
12817;DHT22;6473;51.552;6.716;2023-07-31T05:22:33;16.50;99.90
12817;DHT22;6473;51.552;6.716;2023-07-31T05:25:01;16.60;99.90
12817;DHT22;6473;51.552;6.716;2023-07-31T05:27:28;16.70;99.90
12817;DHT22;6473;51.552;6.716;2023-07-31T05:29:55;16.60;99.90
12817;DHT22;6473;51.552;6.716;2023-07-31T05:32:22;16.60;99.90
12817;DHT22;6473;51.552;6.716;2023-07-31T05:34:50;16.60;99.90
12817;DHT22;6473;51.552;6.716;2023-07-31T05:37:18;16.60;99.90
12817;DHT22;6473;51.552;6.716;2023-07-31T05:39:45;16.60;99.90
12817;DHT22;6473;51.552;6.716;2023-07-31T05:42:13;16.60;99.90
12817;DHT22;6473;51.552;6.716;2023-07-31T05:44:40;16.60;99.90
12817;DHT22;6473;51.552;6.716;2023-07-31T05:47:07;16.60;99.90
12817;DHT22;6473;51.552;6.716;2023-07-31T05:49:34;16.70;99.90
12817;DHT22;6473;51.552;6.716;2023-07-31T05:52:00;16.70;99.90
12817;DHT22;6473;51.552;6.716;2023-07-31T05:54:27;16.70;99.90
12817;DHT22;6473;51.552;6.716;2023-07-31T05:56:54;16.60;99.90
12817;DHT22;6473;51.552;6.716;2023-07-31T05:59:22;16.70;99.90
12817;DHT22;6473;51.552;6.716;2023-07-31T06:01:49;16.70;99.90
12817;DHT22;6473;51.552;6.716;2023-07-31T06:04:16;16.70;99.90
12817;DHT22;6473;51.552;6.716;2023-07-31T06:06:43;16.70;99.90
12817;DHT22;6473;51.552;6.716;2023-07-31T06:09:10;16.80;99.90
12817;DHT22;6473;51.552;6.716;2023-07-31T06:11:37;16.70;99.90
12817;DHT22;6473;51.552;6.716;2023-07-31T06:14:04;16.60;99.90
12817;DHT22;6473;51.552;6.716;2023-07-31T06:16:32;16.50;99.90
12817;DHT22;6473;51.552;6.716;2023-07-31T06:18:59;16.50;99.90
12817;DHT22;6473;51.552;6.716;2023-07-31T06:21:26;16.40;99.90
12817;DHT22;6473;51.552;6.716;2023-07-31T06:23:53;16.40;99.90
12817;DHT22;6473;51.552;6.716;2023-07-31T06:26:20;16.40;99.90
12817;DHT22;6473;51.552;6.716;2023-07-31T06:28:46;15.50;99.90
12817;DHT22;6473;51.552;6.716;2023-07-31T06:31:13;16.40;99.90
12817;DHT22;6473;51.552;6.716;2023-07-31T06:33:42;16.40;99.90
12817;DHT22;6473;51.552;6.716;2023-07-31T06:36:08;16.40;99.90
12817;DHT22;6473;51.552;6.716;2023-07-31T06:38:35;16.50;99.90
12817;DHT22;6473;51.552;6.716;2023-07-31T06:41:03;16.50;99.90
12817;DHT22;6473;51.552;6.716;2023-07-31T06:43:31;16.50;99.90
12817;DHT22;6473;51.552;6.716;2023-07-31T06:46:04;16.50;99.90
12817;DHT22;6473;51.552;6.716;2023-07-31T06:48:32;16.50;99.90
12817;DHT22;6473;51.552;6.716;2023-07-31T06:51:00;16.60;99.90
12817;DHT22;6473;51.552;6.716;2023-07-31T06:53:27;16.60;99.90
12817;DHT22;6473;51.552;6.716;2023-07-31T06:55:55;16.60;99.90
12817;DHT22;6473;51.552;6.716;2023-07-31T06:58:22;16.50;99.90
12817;DHT22;6473;51.552;6.716;2023-07-31T07:00:49;16.50;99.90
12817;DHT22;6473;51.552;6.716;2023-07-31T07:03:18;16.40;99.90
12817;DHT22;6473;51.552;6.716;2023-07-31T07:05:45;16.50;99.90
12817;DHT22;6473;51.552;6.716;2023-07-31T07:08:14;16.40;99.90
12817;DHT22;6473;51.552;6.716;2023-07-31T07:10:42;16.40;99.90
12817;DHT22;6473;51.552;6.716;2023-07-31T07:13:09;16.40;99.90
12817;DHT22;6473;51.552;6.716;2023-07-31T07:15:38;16.30;99.90
12817;DHT22;6473;51.552;6.716;2023-07-31T07:18:05;16.40;99.90
12817;DHT22;6473;51.552;6.716;2023-07-31T07:20:33;16.40;99.90
12817;DHT22;6473;51.552;6.716;2023-07-31T07:23:00;16.50;99.90
12817;DHT22;6473;51.552;6.716;2023-07-31T07:25:29;16.40;99.90
12817;DHT22;6473;51.552;6.716;2023-07-31T07:27:56;16.40;99.90
12817;DHT22;6473;51.552;6.716;2023-07-31T07:30:23;16.30;99.90
12817;DHT22;6473;51.552;6.716;2023-07-31T07:32:51;16.30;99.90
12817;DHT22;6473;51.552;6.716;2023-07-31T07:35:18;16.30;99.90
12817;DHT22;6473;51.552;6.716;2023-07-31T07:37:47;16.30;99.90
12817;DHT22;6473;51.552;6.716;2023-07-31T07:40:15;16.20;99.90
12817;DHT22;6473;51.552;6.716;2023-07-31T07:42:44;16.30;99.90
12817;DHT22;6473;51.552;6.716;2023-07-31T07:45:12;16.30;99.90
12817;DHT22;6473;51.552;6.716;2023-07-31T07:47:41;16.30;99.90
12817;DHT22;6473;51.552;6.716;2023-07-31T07:50:09;16.20;99.90
12817;DHT22;6473;51.552;6.716;2023-07-31T07:52:36;16.20;99.90
12817;DHT22;6473;51.552;6.716;2023-07-31T07:55:04;16.20;99.90
12817;DHT22;6473;51.552;6.716;2023-07-31T07:57:31;16.20;99.90
12817;DHT22;6473;51.552;6.716;2023-07-31T08:00:00;16.10;99.90
12817;DHT22;6473;51.552;6.716;2023-07-31T08:02:27;16.20;99.90
12817;DHT22;6473;51.552;6.716;2023-07-31T08:04:54;16.10;99.90
12817;DHT22;6473;51.552;6.716;2023-07-31T08:07:21;16.00;99.90
12817;DHT22;6473;51.552;6.716;2023-07-31T08:09:48;16.10;99.90
12817;DHT22;6473;51.552;6.716;2023-07-31T08:12:15;16.00;99.90
12817;DHT22;6473;51.552;6.716;2023-07-31T08:14:42;16.00;99.90
12817;DHT22;6473;51.552;6.716;2023-07-31T08:17:10;16.00;99.90
12817;DHT22;6473;51.552;6.716;2023-07-31T08:19:37;16.00;99.90
12817;DHT22;6473;51.552;6.716;2023-07-31T08:22:05;16.10;99.90
12817;DHT22;6473;51.552;6.716;2023-07-31T08:24:32;16.00;99.90
12817;DHT22;6473;51.552;6.716;2023-07-31T08:26:59;16.00;99.90
12817;DHT22;6473;51.552;6.716;2023-07-31T08:29:26;16.10;99.90
12817;DHT22;6473;51.552;6.716;2023-07-31T08:31:53;16.10;99.90
12817;DHT22;6473;51.552;6.716;2023-07-31T08:34:22;16.10;99.90
12817;DHT22;6473;51.552;6.716;2023-07-31T08:36:50;16.10;99.90
12817;DHT22;6473;51.552;6.716;2023-07-31T08:39:17;16.10;99.90
12817;DHT22;6473;51.552;6.716;2023-07-31T08:41:45;16.20;99.90
12817;DHT22;6473;51.552;6.716;2023-07-31T08:44:14;16.20;99.90
12817;DHT22;6473;51.552;6.716;2023-07-31T08:46:42;16.20;99.90
12817;DHT22;6473;51.552;6.716;2023-07-31T08:49:10;16.20;99.90
12817;DHT22;6473;51.552;6.716;2023-07-31T08:51:41;16.20;99.90
12817;DHT22;6473;51.552;6.716;2023-07-31T08:54:08;16.20;99.90
12817;DHT22;6473;51.552;6.716;2023-07-31T08:56:36;16.20;99.90
12817;DHT22;6473;51.552;6.716;2023-07-31T08:59:04;16.20;99.90
12817;DHT22;6473;51.552;6.716;2023-07-31T09:01:35;16.30;99.90
12817;DHT22;6473;51.552;6.716;2023-07-31T09:04:04;16.20;99.90
12817;DHT22;6473;51.552;6.716;2023-07-31T09:06:32;16.30;99.90
12817;DHT22;6473;51.552;6.716;2023-07-31T09:09:01;16.40;99.90
12817;DHT22;6473;51.552;6.716;2023-07-31T09:11:30;16.40;99.90
12817;DHT22;6473;51.552;6.716;2023-07-31T09:13:57;16.40;99.90
12817;DHT22;6473;51.552;6.716;2023-07-31T09:16:27;16.40;99.90
12817;DHT22;6473;51.552;6.716;2023-07-31T09:18:56;16.40;99.90
12817;DHT22;6473;51.552;6.716;2023-07-31T09:21:24;16.50;99.90
12817;DHT22;6473;51.552;6.716;2023-07-31T09:23:54;16.50;99.90
12817;DHT22;6473;51.552;6.716;2023-07-31T09:26:32;16.60;99.90
12817;DHT22;6473;51.552;6.716;2023-07-31T09:29:01;16.50;99.90
12817;DHT22;6473;51.552;6.716;2023-07-31T09:31:38;16.50;99.90
12817;DHT22;6473;51.552;6.716;2023-07-31T09:34:06;16.50;99.90
12817;DHT22;6473;51.552;6.716;2023-07-31T09:36:40;16.50;99.90
12817;DHT22;6473;51.552;6.716;2023-07-31T09:39:09;16.70;99.90
12817;DHT22;6473;51.552;6.716;2023-07-31T09:41:38;16.60;99.90
12817;DHT22;6473;51.552;6.716;2023-07-31T09:44:05;16.60;99.90
12817;DHT22;6473;51.552;6.716;2023-07-31T09:46:35;16.60;99.90
12817;DHT22;6473;51.552;6.716;2023-07-31T09:49:09;16.60;99.90
12817;DHT22;6473;51.552;6.716;2023-07-31T09:51:37;16.70;99.90
12817;DHT22;6473;51.552;6.716;2023-07-31T09:54:09;16.60;99.90
12817;DHT22;6473;51.552;6.716;2023-07-31T09:56:42;16.70;99.90
12817;DHT22;6473;51.552;6.716;2023-07-31T09:59:12;16.80;99.90
12817;DHT22;6473;51.552;6.716;2023-07-31T10:01:40;16.70;99.90
12817;DHT22;6473;51.552;6.716;2023-07-31T10:04:08;16.70;99.90
12817;DHT22;6473;51.552;6.716;2023-07-31T10:06:36;16.70;99.90
12817;DHT22;6473;51.552;6.716;2023-07-31T10:09:05;16.70;99.90
12817;DHT22;6473;51.552;6.716;2023-07-31T10:11:35;16.70;99.90
12817;DHT22;6473;51.552;6.716;2023-07-31T10:14:05;16.70;99.90
12817;DHT22;6473;51.552;6.716;2023-07-31T10:16:32;16.80;99.90
12817;DHT22;6473;51.552;6.716;2023-07-31T10:19:00;16.80;99.90
12817;DHT22;6473;51.552;6.716;2023-07-31T10:21:27;16.70;99.90
12817;DHT22;6473;51.552;6.716;2023-07-31T10:23:55;16.80;99.90
12817;DHT22;6473;51.552;6.716;2023-07-31T10:26:23;16.90;99.90
12817;DHT22;6473;51.552;6.716;2023-07-31T10:28:52;16.90;99.90
12817;DHT22;6473;51.552;6.716;2023-07-31T10:31:21;17.00;99.90
12817;DHT22;6473;51.552;6.716;2023-07-31T10:33:49;17.00;99.90
12817;DHT22;6473;51.552;6.716;2023-07-31T10:36:18;17.00;99.90
12817;DHT22;6473;51.552;6.716;2023-07-31T10:38:44;17.10;99.90
12817;DHT22;6473;51.552;6.716;2023-07-31T10:41:11;17.20;99.90
12817;DHT22;6473;51.552;6.716;2023-07-31T10:43:38;17.30;99.90
12817;DHT22;6473;51.552;6.716;2023-07-31T10:46:09;17.40;99.90
12817;DHT22;6473;51.552;6.716;2023-07-31T10:48:40;17.50;99.90
12817;DHT22;6473;51.552;6.716;2023-07-31T10:51:08;17.50;99.90
12817;DHT22;6473;51.552;6.716;2023-07-31T10:53:36;17.50;99.90
12817;DHT22;6473;51.552;6.716;2023-07-31T10:56:04;17.60;99.90
12817;DHT22;6473;51.552;6.716;2023-07-31T10:58:32;17.60;99.90
12817;DHT22;6473;51.552;6.716;2023-07-31T11:01:02;17.50;99.90
12817;DHT22;6473;51.552;6.716;2023-07-31T11:03:43;17.60;99.90
12817;DHT22;6473;51.552;6.716;2023-07-31T11:06:10;17.60;99.90
12817;DHT22;6473;51.552;6.716;2023-07-31T11:08:42;17.70;99.90
12817;DHT22;6473;51.552;6.716;2023-07-31T11:11:11;17.70;99.90
12817;DHT22;6473;51.552;6.716;2023-07-31T11:13:42;17.70;99.90
12817;DHT22;6473;51.552;6.716;2023-07-31T11:16:10;17.70;99.90
12817;DHT22;6473;51.552;6.716;2023-07-31T11:18:39;17.70;99.90
12817;DHT22;6473;51.552;6.716;2023-07-31T11:21:08;17.70;99.90
12817;DHT22;6473;51.552;6.716;2023-07-31T11:23:37;17.70;99.90
12817;DHT22;6473;51.552;6.716;2023-07-31T11:26:05;17.70;99.90
12817;DHT22;6473;51.552;6.716;2023-07-31T11:28:33;17.70;99.90
12817;DHT22;6473;51.552;6.716;2023-07-31T11:31:01;17.80;99.90
12817;DHT22;6473;51.552;6.716;2023-07-31T11:33:28;17.80;99.90
12817;DHT22;6473;51.552;6.716;2023-07-31T11:35:55;17.90;99.90
12817;DHT22;6473;51.552;6.716;2023-07-31T11:38:24;17.90;99.90
12817;DHT22;6473;51.552;6.716;2023-07-31T11:40:52;17.80;99.90
12817;DHT22;6473;51.552;6.716;2023-07-31T11:43:20;17.70;99.90
12817;DHT22;6473;51.552;6.716;2023-07-31T11:45:48;17.70;99.90
12817;DHT22;6473;51.552;6.716;2023-07-31T11:48:19;17.70;99.90
12817;DHT22;6473;51.552;6.716;2023-07-31T11:50:48;17.80;99.90
12817;DHT22;6473;51.552;6.716;2023-07-31T11:53:18;17.90;99.90
12817;DHT22;6473;51.552;6.716;2023-07-31T11:55:47;18.00;99.90
12817;DHT22;6473;51.552;6.716;2023-07-31T11:58:15;18.00;99.90
12817;DHT22;6473;51.552;6.716;2023-07-31T12:00:44;18.10;99.90
12817;DHT22;6473;51.552;6.716;2023-07-31T12:03:11;18.10;99.90
12817;DHT22;6473;51.552;6.716;2023-07-31T12:05:38;18.10;99.90
12817;DHT22;6473;51.552;6.716;2023-07-31T12:08:09;18.00;99.90
12817;DHT22;6473;51.552;6.716;2023-07-31T12:10:36;18.00;99.90
12817;DHT22;6473;51.552;6.716;2023-07-31T12:13:05;18.10;99.90
12817;DHT22;6473;51.552;6.716;2023-07-31T12:15:34;18.20;99.90
12817;DHT22;6473;51.552;6.716;2023-07-31T12:18:05;18.20;99.90
12817;DHT22;6473;51.552;6.716;2023-07-31T12:20:32;18.10;99.90
12817;DHT22;6473;51.552;6.716;2023-07-31T12:22:59;18.00;99.90
12817;DHT22;6473;51.552;6.716;2023-07-31T12:25:30;17.90;99.90
12817;DHT22;6473;51.552;6.716;2023-07-31T12:27:57;17.80;99.90
12817;DHT22;6473;51.552;6.716;2023-07-31T12:30:29;17.90;99.90
12817;DHT22;6473;51.552;6.716;2023-07-31T12:32:56;17.90;99.90
12817;DHT22;6473;51.552;6.716;2023-07-31T12:35:23;18.00;99.90
12817;DHT22;6473;51.552;6.716;2023-07-31T12:37:50;18.10;99.90
12817;DHT22;6473;51.552;6.716;2023-07-31T12:40:17;18.20;99.90
12817;DHT22;6473;51.552;6.716;2023-07-31T12:42:44;18.20;99.90
12817;DHT22;6473;51.552;6.716;2023-07-31T12:45:11;18.20;99.90
12817;DHT22;6473;51.552;6.716;2023-07-31T12:47:40;18.10;99.90
12817;DHT22;6473;51.552;6.716;2023-07-31T12:50:08;18.20;99.90
12817;DHT22;6473;51.552;6.716;2023-07-31T12:52:34;18.00;99.90
12817;DHT22;6473;51.552;6.716;2023-07-31T12:55:01;18.10;99.90
12817;DHT22;6473;51.552;6.716;2023-07-31T12:57:28;18.10;99.90
12817;DHT22;6473;51.552;6.716;2023-07-31T12:59:55;18.10;99.90
12817;DHT22;6473;51.552;6.716;2023-07-31T13:02:22;18.10;99.90
12817;DHT22;6473;51.552;6.716;2023-07-31T13:04:51;17.90;99.90
12817;DHT22;6473;51.552;6.716;2023-07-31T13:07:18;17.80;99.90
12817;DHT22;6473;51.552;6.716;2023-07-31T13:09:45;17.80;99.90
12817;DHT22;6473;51.552;6.716;2023-07-31T13:12:12;17.80;99.90
12817;DHT22;6473;51.552;6.716;2023-07-31T13:14:39;17.90;99.90
12817;DHT22;6473;51.552;6.716;2023-07-31T13:17:06;18.00;99.90
12817;DHT22;6473;51.552;6.716;2023-07-31T13:19:33;17.90;99.90
12817;DHT22;6473;51.552;6.716;2023-07-31T13:22:01;18.00;99.90
12817;DHT22;6473;51.552;6.716;2023-07-31T13:24:28;18.00;99.90
12817;DHT22;6473;51.552;6.716;2023-07-31T13:26:56;17.90;99.90
12817;DHT22;6473;51.552;6.716;2023-07-31T13:29:23;18.00;99.90
12817;DHT22;6473;51.552;6.716;2023-07-31T13:31:51;18.00;99.90
12817;DHT22;6473;51.552;6.716;2023-07-31T13:34:18;18.00;99.90
12817;DHT22;6473;51.552;6.716;2023-07-31T13:36:45;18.00;99.90
12817;DHT22;6473;51.552;6.716;2023-07-31T13:39:13;18.00;99.90
12817;DHT22;6473;51.552;6.716;2023-07-31T13:41:40;18.00;99.90
12817;DHT22;6473;51.552;6.716;2023-07-31T13:44:07;18.10;99.90
12817;DHT22;6473;51.552;6.716;2023-07-31T13:46:34;18.20;99.90
12817;DHT22;6473;51.552;6.716;2023-07-31T13:49:01;18.20;99.90
12817;DHT22;6473;51.552;6.716;2023-07-31T13:51:28;18.30;99.90
12817;DHT22;6473;51.552;6.716;2023-07-31T13:53:55;18.20;99.90
12817;DHT22;6473;51.552;6.716;2023-07-31T13:56:23;18.30;99.90
12817;DHT22;6473;51.552;6.716;2023-07-31T13:58:50;18.30;99.90
12817;DHT22;6473;51.552;6.716;2023-07-31T14:01:17;18.50;99.90
12817;DHT22;6473;51.552;6.716;2023-07-31T14:03:45;18.50;99.90
12817;DHT22;6473;51.552;6.716;2023-07-31T14:06:12;18.80;99.90
12817;DHT22;6473;51.552;6.716;2023-07-31T14:08:39;19.00;99.90
12817;DHT22;6473;51.552;6.716;2023-07-31T14:11:06;19.00;99.90
12817;DHT22;6473;51.552;6.716;2023-07-31T14:13:34;19.30;99.90
12817;DHT22;6473;51.552;6.716;2023-07-31T14:16:01;19.50;99.90
12817;DHT22;6473;51.552;6.716;2023-07-31T14:18:28;19.50;99.90
12817;DHT22;6473;51.552;6.716;2023-07-31T14:20:55;19.50;99.90
12817;DHT22;6473;51.552;6.716;2023-07-31T14:23:21;19.40;99.90
12817;DHT22;6473;51.552;6.716;2023-07-31T14:25:48;19.30;99.90
12817;DHT22;6473;51.552;6.716;2023-07-31T14:28:15;19.30;99.90
12817;DHT22;6473;51.552;6.716;2023-07-31T14:30:43;19.20;99.90
12817;DHT22;6473;51.552;6.716;2023-07-31T14:33:10;19.20;99.90
12817;DHT22;6473;51.552;6.716;2023-07-31T14:35:37;19.20;99.90
12817;DHT22;6473;51.552;6.716;2023-07-31T14:38:03;19.20;99.90
12817;DHT22;6473;51.552;6.716;2023-07-31T14:40:30;19.10;99.90
12817;DHT22;6473;51.552;6.716;2023-07-31T14:42:57;19.00;99.90
12817;DHT22;6473;51.552;6.716;2023-07-31T14:45:24;18.90;99.90
12817;DHT22;6473;51.552;6.716;2023-07-31T14:47:52;18.80;99.90
12817;DHT22;6473;51.552;6.716;2023-07-31T14:50:20;18.70;99.90
12817;DHT22;6473;51.552;6.716;2023-07-31T14:52:47;18.60;99.90
12817;DHT22;6473;51.552;6.716;2023-07-31T14:55:14;18.40;99.90
12817;DHT22;6473;51.552;6.716;2023-07-31T14:57:40;18.40;99.90
12817;DHT22;6473;51.552;6.716;2023-07-31T15:00:08;18.40;99.90
12817;DHT22;6473;51.552;6.716;2023-07-31T15:02:36;18.40;99.90
12817;DHT22;6473;51.552;6.716;2023-07-31T15:05:05;18.30;99.90
12817;DHT22;6473;51.552;6.716;2023-07-31T15:07:32;18.30;99.90
12817;DHT22;6473;51.552;6.716;2023-07-31T15:09:58;18.30;99.90
12817;DHT22;6473;51.552;6.716;2023-07-31T15:12:26;18.20;99.90
12817;DHT22;6473;51.552;6.716;2023-07-31T15:14:53;18.20;99.90
12817;DHT22;6473;51.552;6.716;2023-07-31T15:17:20;18.10;99.90
12817;DHT22;6473;51.552;6.716;2023-07-31T15:19:47;18.10;99.90
12817;DHT22;6473;51.552;6.716;2023-07-31T15:22:15;18.10;99.90
12817;DHT22;6473;51.552;6.716;2023-07-31T15:24:42;18.20;99.90
12817;DHT22;6473;51.552;6.716;2023-07-31T15:27:09;18.10;99.90
12817;DHT22;6473;51.552;6.716;2023-07-31T15:29:36;17.90;99.90
12817;DHT22;6473;51.552;6.716;2023-07-31T15:32:04;18.00;99.90
12817;DHT22;6473;51.552;6.716;2023-07-31T15:34:31;17.90;99.90
12817;DHT22;6473;51.552;6.716;2023-07-31T15:36:58;18.00;99.90
12817;DHT22;6473;51.552;6.716;2023-07-31T15:39:26;17.90;99.90
12817;DHT22;6473;51.552;6.716;2023-07-31T15:41:53;17.90;99.90
12817;DHT22;6473;51.552;6.716;2023-07-31T15:44:20;17.90;99.90
12817;DHT22;6473;51.552;6.716;2023-07-31T15:46:47;17.90;99.90
12817;DHT22;6473;51.552;6.716;2023-07-31T15:49:14;17.90;99.90